Terminal Aerodrome Forecast
Issued by NWS

Home | Current Version | Previous Version | Text Only | Print | Product List | Glossary On
Versions: 1 2 3 4 5 6 7 8 9 10 11 12 13 14 15 16 17 18 19 20 21 22 23 24 25 26 27 28 29 30
000
FTUS46 KSEW 200520
TAFSEA
TAF
KSEA 200520Z 2006/2112 18006KT 6SM -SHRA FEW012 OVC024
     FM201400 21005KT 6SM -SHRA SCT008 BKN012 OVC022
     FM202000 20008KT P6SM VCSH SCT018 BKN030 BKN060
     FM210200 02005KT P6SM SCT030 BKN050=

USA.gov is the U.S. government's official web portal to all federal, state and local government web resources and services.